sensor_id;sensor_type;location;lat;lon;timestamp;pressure;altitude;pressure_sealevel;temperature;humidity
7168;BME280;3625;51.762;14.320;2022-07-15T00:00:27;100801.19;;;15.48;63.75
7168;BME280;3625;51.762;14.320;2022-07-15T00:02:57;100804.28;;;15.37;64.35
7168;BME280;3625;51.762;14.320;2022-07-15T00:05:26;100801.78;;;15.33;64.54
7168;BME280;3625;51.762;14.320;2022-07-15T00:07:55;100766.25;;;15.07;64.82
7168;BME280;3625;51.762;14.320;2022-07-15T00:10:26;100634.13;;;14.27;65.06
7168;BME280;3625;51.762;14.320;2022-07-15T00:12:58;100717.06;;;14.68;65.90
7168;BME280;3625;51.762;14.320;2022-07-15T00:15:30;100816.19;;;15.27;65.68
7168;BME280;3625;51.762;14.320;2022-07-15T00:18:00;100815.44;;;15.24;66.01
7168;BME280;3625;51.762;14.320;2022-07-15T00:20:32;100807.47;;;15.22;66.62
7168;BME280;3625;51.762;14.320;2022-07-15T00:23:02;100806.63;;;15.22;66.87
7168;BME280;3625;51.762;14.320;2022-07-15T00:25:32;100811.56;;;15.07;67.45
7168;BME280;3625;51.762;14.320;2022-07-15T00:28:05;100817.94;;;15.03;68.06
7168;BME280;3625;51.762;14.320;2022-07-15T00:30:37;100802.38;;;14.91;68.65
7168;BME280;3625;51.762;14.320;2022-07-15T00:33:09;100796.94;;;14.94;68.90
7168;BME280;3625;51.762;14.320;2022-07-15T00:35:39;100823.53;;;14.96;69.06
7168;BME280;3625;51.762;14.320;2022-07-15T00:38:09;100816.50;;;14.93;69.65
7168;BME280;3625;51.762;14.320;2022-07-15T00:40:43;100771.28;;;14.65;70.29
7168;BME280;3625;51.762;14.320;2022-07-15T00:43:14;100812.25;;;14.88;70.62
7168;BME280;3625;51.762;14.320;2022-07-15T00:45:44;100812.16;;;14.91;70.80
7168;BME280;3625;51.762;14.320;2022-07-15T00:48:15;100816.50;;;14.93;70.86
7168;BME280;3625;51.762;14.320;2022-07-15T00:50:47;100817.69;;;14.85;71.09
7168;BME280;3625;51.762;14.320;2022-07-15T00:53:19;100813.78;;;14.70;71.62
7168;BME280;3625;51.762;14.320;2022-07-15T00:55:49;100815.88;;;14.60;72.51
7168;BME280;3625;51.762;14.320;2022-07-15T00:58:24;100743.03;;;14.07;72.64
7168;BME280;3625;51.762;14.320;2022-07-15T01:00:56;100823.56;;;14.42;73.39
7168;BME280;3625;51.762;14.320;2022-07-15T01:03:29;100824.69;;;14.33;73.80
7168;BME280;3625;51.762;14.320;2022-07-15T01:05:59;100681.00;;;13.49;74.16
7168;BME280;3625;51.762;14.320;2022-07-15T01:08:28;100815.34;;;14.20;74.36
7168;BME280;3625;51.762;14.320;2022-07-15T01:10:57;100653.63;;;13.18;74.55
7168;BME280;3625;51.762;14.320;2022-07-15T01:13:26;100678.94;;;13.31;75.40
7168;BME280;3625;51.762;14.320;2022-07-15T01:15:55;100819.44;;;14.02;75.48
7168;BME280;3625;51.762;14.320;2022-07-15T01:18:26;100637.97;;;13.07;76.01
7168;BME280;3625;51.762;14.320;2022-07-15T01:20:56;100779.31;;;13.82;75.80
7168;BME280;3625;51.762;14.320;2022-07-15T01:23:25;100724.81;;;13.38;76.08
7168;BME280;3625;51.762;14.320;2022-07-15T01:26:13;100812.78;;;13.89;76.79
7168;BME280;3625;51.762;14.320;2022-07-15T01:28:43;100724.41;;;13.20;76.61
7168;BME280;3625;51.762;14.320;2022-07-15T01:31:13;100818.56;;;13.74;77.18
7168;BME280;3625;51.762;14.320;2022-07-15T01:33:44;100820.16;;;13.79;77.74
7168;BME280;3625;51.762;14.320;2022-07-15T01:36:14;100801.81;;;13.70;77.89
7168;BME280;3625;51.762;14.320;2022-07-15T01:38:50;100818.38;;;13.80;77.93
7168;BME280;3625;51.762;14.320;2022-07-15T01:41:39;100817.50;;;13.79;78.21
7168;BME280;3625;51.762;14.320;2022-07-15T01:44:12;100724.53;;;13.16;78.23
7168;BME280;3625;51.762;14.320;2022-07-15T01:46:43;100828.47;;;13.67;78.79
7168;BME280;3625;51.762;14.320;2022-07-15T01:49:14;100835.81;;;13.59;79.38
7168;BME280;3625;51.762;14.320;2022-07-15T01:52:21;100840.47;;;13.51;79.59
7168;BME280;3625;51.762;14.320;2022-07-15T01:54:50;100834.41;;;13.46;79.66
7168;BME280;3625;51.762;14.320;2022-07-15T01:57:19;100838.81;;;13.47;80.49
7168;BME280;3625;51.762;14.320;2022-07-15T01:59:52;100835.41;;;13.42;80.82
7168;BME280;3625;51.762;14.320;2022-07-15T02:02:40;100836.41;;;13.38;80.92
7168;BME280;3625;51.762;14.320;2022-07-15T02:05:09;100806.09;;;13.12;80.96
7168;BME280;3625;51.762;14.320;2022-07-15T02:07:40;100623.09;;;12.06;81.59
7168;BME280;3625;51.762;14.320;2022-07-15T02:10:13;100646.78;;;12.14;81.79
7168;BME280;3625;51.762;14.320;2022-07-15T02:12:47;100657.31;;;12.17;82.33
7168;BME280;3625;51.762;14.320;2022-07-15T02:15:19;100834.22;;;13.21;82.88
7168;BME280;3625;51.762;14.320;2022-07-15T02:17:52;100843.88;;;13.23;83.22
7168;BME280;3625;51.762;14.320;2022-07-15T02:20:26;100840.41;;;13.21;83.43
7168;BME280;3625;51.762;14.320;2022-07-15T02:22:58;100836.03;;;13.19;83.38
7168;BME280;3625;51.762;14.320;2022-07-15T02:25:29;100839.69;;;13.15;83.84
7168;BME280;3625;51.762;14.320;2022-07-15T02:28:03;100842.34;;;13.15;84.11
7168;BME280;3625;51.762;14.320;2022-07-15T02:30:35;100815.28;;;12.99;84.50
7168;BME280;3625;51.762;14.320;2022-07-15T02:33:05;100840.75;;;13.06;85.00
7168;BME280;3625;51.762;14.320;2022-07-15T02:35:35;100834.59;;;13.06;84.99
7168;BME280;3625;51.762;14.320;2022-07-15T02:38:07;100795.59;;;12.74;85.38
7168;BME280;3625;51.762;14.320;2022-07-15T02:40:37;100840.91;;;13.02;85.50
7168;BME280;3625;51.762;14.320;2022-07-15T02:43:11;100818.50;;;12.78;85.68
7168;BME280;3625;51.762;14.320;2022-07-15T02:45:42;100848.19;;;12.94;86.30
7168;BME280;3625;51.762;14.320;2022-07-15T02:48:15;100859.78;;;12.90;86.29
7168;BME280;3625;51.762;14.320;2022-07-15T02:50:46;100858.00;;;12.90;86.61
7168;BME280;3625;51.762;14.320;2022-07-15T02:53:18;100867.69;;;12.93;87.01
7168;BME280;3625;51.762;14.320;2022-07-15T02:55:48;100844.09;;;12.80;87.18
7168;BME280;3625;51.762;14.320;2022-07-15T02:58:17;100865.00;;;12.94;87.43
7168;BME280;3625;51.762;14.320;2022-07-15T03:00:49;100752.81;;;12.17;87.40
7168;BME280;3625;51.762;14.320;2022-07-15T03:03:18;100762.28;;;12.27;87.96
7168;BME280;3625;51.762;14.320;2022-07-15T03:05:47;100881.91;;;12.90;88.07
7168;BME280;3625;51.762;14.320;2022-07-15T03:08:18;100880.16;;;12.89;88.11
7168;BME280;3625;51.762;14.320;2022-07-15T03:10:49;100879.47;;;12.81;88.83
7168;BME280;3625;51.762;14.320;2022-07-15T03:13:19;100891.09;;;12.77;88.87
7168;BME280;3625;51.762;14.320;2022-07-15T03:15:47;100860.41;;;12.65;89.52
7168;BME280;3625;51.762;14.320;2022-07-15T03:18:17;100842.13;;;12.53;90.05
7168;BME280;3625;51.762;14.320;2022-07-15T03:20:47;100745.34;;;11.95;89.95
7168;BME280;3625;51.762;14.320;2022-07-15T03:23:18;100854.56;;;12.51;90.15
7168;BME280;3625;51.762;14.320;2022-07-15T03:25:48;100872.78;;;12.66;90.61
7168;BME280;3625;51.762;14.320;2022-07-15T03:28:17;100875.50;;;12.63;90.91
7168;BME280;3625;51.762;14.320;2022-07-15T03:30:48;100844.84;;;12.50;91.36
7168;BME280;3625;51.762;14.320;2022-07-15T03:33:17;100897.38;;;12.73;91.40
7168;BME280;3625;51.762;14.320;2022-07-15T03:35:46;100892.94;;;12.73;91.90
7168;BME280;3625;51.762;14.320;2022-07-15T03:38:14;100894.72;;;12.73;91.69
7168;BME280;3625;51.762;14.320;2022-07-15T03:40:44;100901.81;;;12.72;91.95
7168;BME280;3625;51.762;14.320;2022-07-15T03:43:13;100906.22;;;12.73;92.05
7168;BME280;3625;51.762;14.320;2022-07-15T03:45:45;100730.91;;;11.68;92.14
7168;BME280;3625;51.762;14.320;2022-07-15T03:48:17;100895.75;;;12.67;92.17
7168;BME280;3625;51.762;14.320;2022-07-15T03:50:46;100920.16;;;12.83;92.35
7168;BME280;3625;51.762;14.320;2022-07-15T03:53:14;100924.56;;;12.84;92.40
7168;BME280;3625;51.762;14.320;2022-07-15T03:55:44;100886.97;;;12.64;92.35
7168;BME280;3625;51.762;14.320;2022-07-15T03:58:13;100810.91;;;12.27;92.55
7168;BME280;3625;51.762;14.320;2022-07-15T04:00:42;100870.28;;;12.60;92.54
7168;BME280;3625;51.762;14.320;2022-07-15T04:03:11;100913.81;;;12.89;92.54
7168;BME280;3625;51.762;14.320;2022-07-15T04:05:40;100907.69;;;12.87;92.32
7168;BME280;3625;51.762;14.320;2022-07-15T04:08:09;100876.34;;;12.65;92.44
7168;BME280;3625;51.762;14.320;2022-07-15T04:10:38;100932.28;;;12.95;92.35
7168;BME280;3625;51.762;14.320;2022-07-15T04:13:08;100724.63;;;11.76;92.41
7168;BME280;3625;51.762;14.320;2022-07-15T04:15:37;100887.56;;;12.76;92.68
7168;BME280;3625;51.762;14.320;2022-07-15T04:18:05;100907.47;;;12.96;92.55
7168;BME280;3625;51.762;14.320;2022-07-15T04:20:34;100917.91;;;13.03;92.07
7168;BME280;3625;51.762;14.320;2022-07-15T04:23:05;100927.31;;;13.16;91.74
7168;BME280;3625;51.762;14.320;2022-07-15T04:25:36;100933.31;;;13.25;91.76
7168;BME280;3625;51.762;14.320;2022-07-15T04:28:04;100929.00;;;13.20;91.16
7168;BME280;3625;51.762;14.320;2022-07-15T04:30:35;100880.78;;;13.00;90.96
7168;BME280;3625;51.762;14.320;2022-07-15T04:33:04;100938.31;;;13.37;90.60
7168;BME280;3625;51.762;14.320;2022-07-15T04:35:37;100787.22;;;12.55;90.23
7168;BME280;3625;51.762;14.320;2022-07-15T04:38:07;100941.38;;;13.55;90.01
7168;BME280;3625;51.762;14.320;2022-07-15T04:40:38;100948.22;;;13.64;88.94
7168;BME280;3625;51.762;14.320;2022-07-15T04:43:12;100949.13;;;13.63;89.15
7168;BME280;3625;51.762;14.320;2022-07-15T04:45:46;100775.63;;;12.59;89.16
7168;BME280;3625;51.762;14.320;2022-07-15T04:48:19;100936.81;;;13.59;89.03
7168;BME280;3625;51.762;14.320;2022-07-15T04:51:07;100955.63;;;13.84;88.12
7168;BME280;3625;51.762;14.320;2022-07-15T04:53:39;100965.16;;;13.92;87.84
7168;BME280;3625;51.762;14.320;2022-07-15T04:56:08;100945.00;;;13.84;87.50
7168;BME280;3625;51.762;14.320;2022-07-15T04:58:37;100870.56;;;13.51;86.70
7168;BME280;3625;51.762;14.320;2022-07-15T05:01:10;100954.13;;;14.06;86.41
7168;BME280;3625;51.762;14.320;2022-07-15T05:03:43;100974.91;;;14.24;85.75
7168;BME280;3625;51.762;14.320;2022-07-15T05:06:14;100972.22;;;14.26;85.83
7168;BME280;3625;51.762;14.320;2022-07-15T05:08:43;100947.69;;;14.15;85.82
7168;BME280;3625;51.762;14.320;2022-07-15T05:11:14;100962.44;;;14.26;85.83
7168;BME280;3625;51.762;14.320;2022-07-15T05:13:45;100976.38;;;14.34;85.74
7168;BME280;3625;51.762;14.320;2022-07-15T05:16:17;100954.44;;;14.26;85.45
7168;BME280;3625;51.762;14.320;2022-07-15T05:18:46;100862.66;;;13.81;84.00
7168;BME280;3625;51.762;14.320;2022-07-15T05:21:17;100989.69;;;14.65;84.08
7168;BME280;3625;51.762;14.320;2022-07-15T05:23:52;100956.94;;;14.62;83.53
7168;BME280;3625;51.762;14.320;2022-07-15T05:26:41;100991.88;;;15.08;80.88
7168;BME280;3625;51.762;14.320;2022-07-15T05:29:12;101001.16;;;15.23;79.53
7168;BME280;3625;51.762;14.320;2022-07-15T05:31:43;100985.84;;;15.30;78.91
7168;BME280;3625;51.762;14.320;2022-07-15T05:34:13;101003.72;;;15.53;78.11
7168;BME280;3625;51.762;14.320;2022-07-15T05:36:42;101012.91;;;15.72;76.95
7168;BME280;3625;51.762;14.320;2022-07-15T05:39:14;101014.06;;;15.90;76.40
7168;BME280;3625;51.762;14.320;2022-07-15T05:41:43;100966.22;;;15.83;74.65
7168;BME280;3625;51.762;14.320;2022-07-15T05:44:16;101016.06;;;16.08;73.44
7168;BME280;3625;51.762;14.320;2022-07-15T05:46:49;101022.47;;;16.02;73.74
7168;BME280;3625;51.762;14.320;2022-07-15T05:49:22;101019.84;;;16.01;74.94
7168;BME280;3625;51.762;14.320;2022-07-15T05:51:53;101017.72;;;16.10;74.36
7168;BME280;3625;51.762;14.320;2022-07-15T05:54:22;100975.03;;;15.85;73.50
7168;BME280;3625;51.762;14.320;2022-07-15T05:56:51;100847.03;;;15.09;74.07
7168;BME280;3625;51.762;14.320;2022-07-15T05:59:22;101014.97;;;16.13;73.20
7168;BME280;3625;51.762;14.320;2022-07-15T06:01:53;101035.44;;;16.13;73.34
7168;BME280;3625;51.762;14.320;2022-07-15T06:04:21;101031.91;;;16.12;72.92
7168;BME280;3625;51.762;14.320;2022-07-15T06:06:54;101019.22;;;15.94;73.15
7168;BME280;3625;51.762;14.320;2022-07-15T06:09:23;101008.50;;;15.96;73.14
7168;BME280;3625;51.762;14.320;2022-07-15T06:11:53;101029.50;;;16.05;74.03
7168;BME280;3625;51.762;14.320;2022-07-15T06:14:22;101011.81;;;16.02;74.44
7168;BME280;3625;51.762;14.320;2022-07-15T06:16:52;101035.03;;;16.25;71.48
7168;BME280;3625;51.762;14.320;2022-07-15T06:19:21;101030.16;;;16.11;71.45
7168;BME280;3625;51.762;14.320;2022-07-15T06:21:50;101008.38;;;15.99;71.79
7168;BME280;3625;51.762;14.320;2022-07-15T06:24:18;101035.13;;;16.22;70.65
7168;BME280;3625;51.762;14.320;2022-07-15T06:26:47;101027.34;;;16.16;69.87
7168;BME280;3625;51.762;14.320;2022-07-15T06:29:16;101023.63;;;16.20;69.81
7168;BME280;3625;51.762;14.320;2022-07-15T06:31:46;101018.50;;;16.14;69.86
7168;BME280;3625;51.762;14.320;2022-07-15T06:34:17;101007.72;;;16.17;70.12
7168;BME280;3625;51.762;14.320;2022-07-15T06:36:46;101041.69;;;16.37;69.22
7168;BME280;3625;51.762;14.320;2022-07-15T06:39:15;101047.47;;;16.49;68.72
7168;BME280;3625;51.762;14.320;2022-07-15T06:41:45;101048.84;;;16.84;65.78
7168;BME280;3625;51.762;14.320;2022-07-15T06:44:15;101006.66;;;16.92;62.00
7168;BME280;3625;51.762;14.320;2022-07-15T06:46:53;101042.69;;;17.04;62.70
7168;BME280;3625;51.762;14.320;2022-07-15T06:49:29;101035.41;;;16.86;62.80
7168;BME280;3625;51.762;14.320;2022-07-15T06:51:58;101043.59;;;16.81;63.96
7168;BME280;3625;51.762;14.320;2022-07-15T06:54:27;101029.66;;;16.73;61.61
7168;BME280;3625;51.762;14.320;2022-07-15T06:56:56;100979.97;;;16.44;61.90
7168;BME280;3625;51.762;14.320;2022-07-15T06:59:25;101050.03;;;16.99;60.52
7168;BME280;3625;51.762;14.320;2022-07-15T07:01:54;101010.56;;;16.84;59.14
7168;BME280;3625;51.762;14.320;2022-07-15T07:04:23;101038.88;;;17.11;59.63
7168;BME280;3625;51.762;14.320;2022-07-15T07:06:54;101001.16;;;16.95;59.75
7168;BME280;3625;51.762;14.320;2022-07-15T07:09:23;101020.94;;;17.13;59.35
7168;BME280;3625;51.762;14.320;2022-07-15T07:11:52;101046.69;;;17.59;58.39
7168;BME280;3625;51.762;14.320;2022-07-15T07:14:21;101047.91;;;17.94;57.11
7168;BME280;3625;51.762;14.320;2022-07-15T07:16:49;101012.03;;;18.37;52.28
7168;BME280;3625;51.762;14.320;2022-07-15T07:19:18;101002.84;;;19.01;50.28
7168;BME280;3625;51.762;14.320;2022-07-15T07:21:47;101045.84;;;19.35;46.86
7168;BME280;3625;51.762;14.320;2022-07-15T07:24:17;101048.31;;;19.21;46.82
7168;BME280;3625;51.762;14.320;2022-07-15T07:26:46;101049.19;;;19.03;46.90
7168;BME280;3625;51.762;14.320;2022-07-15T07:29:15;101046.56;;;18.84;47.28
7168;BME280;3625;51.762;14.320;2022-07-15T07:31:50;101054.59;;;18.84;47.74
7168;BME280;3625;51.762;14.320;2022-07-15T07:34:19;101051.75;;;19.06;47.29
7168;BME280;3625;51.762;14.320;2022-07-15T07:36:48;101009.25;;;19.15;46.78
7168;BME280;3625;51.762;14.320;2022-07-15T07:39:18;101031.78;;;19.11;46.79
7168;BME280;3625;51.762;14.320;2022-07-15T07:41:47;100981.22;;;19.04;47.26
7168;BME280;3625;51.762;14.320;2022-07-15T07:44:20;101026.84;;;19.40;46.85
7168;BME280;3625;51.762;14.320;2022-07-15T07:46:49;101040.22;;;19.04;48.34
7168;BME280;3625;51.762;14.320;2022-07-15T07:49:18;101030.22;;;18.70;49.42
7168;BME280;3625;51.762;14.320;2022-07-15T07:52:04;101044.66;;;18.47;49.46
7168;BME280;3625;51.762;14.320;2022-07-15T07:54:35;101047.41;;;18.45;49.97
7168;BME280;3625;51.762;14.320;2022-07-15T07:57:03;101055.16;;;18.72;49.76
7168;BME280;3625;51.762;14.320;2022-07-15T07:59:33;101054.22;;;19.10;48.38
7168;BME280;3625;51.762;14.320;2022-07-15T08:02:02;100901.94;;;18.62;46.75
7168;BME280;3625;51.762;14.320;2022-07-15T08:04:32;100872.63;;;18.59;46.59
7168;BME280;3625;51.762;14.320;2022-07-15T08:07:00;101062.91;;;19.53;46.62
7168;BME280;3625;51.762;14.320;2022-07-15T08:09:29;101048.25;;;19.04;47.27
7168;BME280;3625;51.762;14.320;2022-07-15T08:12:00;101065.00;;;18.71;48.78
7168;BME280;3625;51.762;14.320;2022-07-15T08:14:28;101059.13;;;18.43;50.11
7168;BME280;3625;51.762;14.320;2022-07-15T08:16:57;100969.59;;;17.69;51.30
7168;BME280;3625;51.762;14.320;2022-07-15T08:19:26;101019.63;;;18.07;51.60
7168;BME280;3625;51.762;14.320;2022-07-15T08:21:55;101038.59;;;18.23;51.63
7168;BME280;3625;51.762;14.320;2022-07-15T08:24:24;101032.22;;;18.26;51.37
7168;BME280;3625;51.762;14.320;2022-07-15T08:26:52;101053.91;;;18.79;50.92
7168;BME280;3625;51.762;14.320;2022-07-15T08:29:22;101071.59;;;19.20;48.76
7168;BME280;3625;51.762;14.320;2022-07-15T08:31:51;101047.69;;;19.16;47.82
7168;BME280;3625;51.762;14.320;2022-07-15T08:34:20;101069.47;;;19.65;46.96
7168;BME280;3625;51.762;14.320;2022-07-15T08:36:49;101050.94;;;20.12;46.11
7168;BME280;3625;51.762;14.320;2022-07-15T08:39:17;101068.03;;;20.61;44.52
7168;BME280;3625;51.762;14.320;2022-07-15T08:41:46;101069.28;;;20.71;44.64
7168;BME280;3625;51.762;14.320;2022-07-15T08:44:16;101061.16;;;20.55;44.92
7168;BME280;3625;51.762;14.320;2022-07-15T08:46:49;101028.47;;;20.47;45.30
7168;BME280;3625;51.762;14.320;2022-07-15T08:49:19;101076.13;;;20.77;43.49
7168;BME280;3625;51.762;14.320;2022-07-15T08:51:51;101067.53;;;20.37;43.72
7168;BME280;3625;51.762;14.320;2022-07-15T08:54:28;100999.66;;;19.99;44.32
7168;BME280;3625;51.762;14.320;2022-07-15T08:56:57;101066.97;;;20.30;43.50
7168;BME280;3625;51.762;14.320;2022-07-15T08:59:26;101041.03;;;20.29;43.39
7168;BME280;3625;51.762;14.320;2022-07-15T09:01:56;100906.47;;;19.67;43.73
7168;BME280;3625;51.762;14.320;2022-07-15T09:04:25;101065.47;;;20.75;43.53
7168;BME280;3625;51.762;14.320;2022-07-15T09:06:54;101061.50;;;20.82;43.78
7168;BME280;3625;51.762;14.320;2022-07-15T09:09:29;101076.53;;;20.69;43.31
7168;BME280;3625;51.762;14.320;2022-07-15T09:12:05;101044.06;;;20.06;43.91
7168;BME280;3625;51.762;14.320;2022-07-15T09:14:44;101070.81;;;19.73;44.72
7168;BME280;3625;51.762;14.320;2022-07-15T09:17:23;101021.94;;;19.12;45.79
7168;BME280;3625;51.762;14.320;2022-07-15T09:20:07;101074.88;;;19.27;46.39
7168;BME280;3625;51.762;14.320;2022-07-15T09:22:52;101047.00;;;19.30;46.29
7168;BME280;3625;51.762;14.320;2022-07-15T09:25:21;101069.91;;;19.55;46.24
7168;BME280;3625;51.762;14.320;2022-07-15T09:27:51;101091.28;;;19.93;45.56
7168;BME280;3625;51.762;14.320;2022-07-15T09:30:24;101093.59;;;20.01;45.12
7168;BME280;3625;51.762;14.320;2022-07-15T09:33:14;101067.75;;;19.98;44.96
7168;BME280;3625;51.762;14.320;2022-07-15T09:36:08;101095.72;;;19.94;45.23
7168;BME280;3625;51.762;14.320;2022-07-15T09:38:46;101090.56;;;20.07;44.98
7168;BME280;3625;51.762;14.320;2022-07-15T09:41:27;101086.19;;;20.40;44.12
7168;BME280;3625;51.762;14.320;2022-07-15T09:44:00;101071.16;;;20.69;43.02
7168;BME280;3625;51.762;14.320;2022-07-15T09:46:40;101068.63;;;21.15;42.00
7168;BME280;3625;51.762;14.320;2022-07-15T09:49:13;100970.91;;;20.98;41.02
7168;BME280;3625;51.762;14.320;2022-07-15T09:51:46;100966.00;;;21.36;40.37
7168;BME280;3625;51.762;14.320;2022-07-15T09:54:16;101052.53;;;21.76;39.08
7168;BME280;3625;51.762;14.320;2022-07-15T09:56:46;101069.41;;;21.01;40.92
7168;BME280;3625;51.762;14.320;2022-07-15T09:59:16;101026.25;;;20.21;41.67
7168;BME280;3625;51.762;14.320;2022-07-15T10:01:45;101074.16;;;20.13;42.52
7168;BME280;3625;51.762;14.320;2022-07-15T10:04:19;101072.81;;;19.87;42.11
7168;BME280;3625;51.762;14.320;2022-07-15T10:06:51;101090.47;;;19.74;42.99
7168;BME280;3625;51.762;14.320;2022-07-15T10:09:41;101085.72;;;19.62;43.21
7168;BME280;3625;51.762;14.320;2022-07-15T10:12:18;101001.88;;;19.38;43.05
7168;BME280;3625;51.762;14.320;2022-07-15T10:15:05;100978.09;;;19.83;41.61
7168;BME280;3625;51.762;14.320;2022-07-15T10:18:01;100927.97;;;20.32;40.44
7168;BME280;3625;51.762;14.320;2022-07-15T10:21:05;101075.28;;;22.02;39.02
7168;BME280;3625;51.762;14.320;2022-07-15T10:24:33;101079.41;;;22.37;37.38
7168;BME280;3625;51.762;14.320;2022-07-15T10:27:21;101071.41;;;22.06;37.55
7168;BME280;3625;51.762;14.320;2022-07-15T10:29:55;101005.09;;;21.28;37.51
7168;BME280;3625;51.762;14.320;2022-07-15T10:32:24;101079.94;;;21.68;38.08
7168;BME280;3625;51.762;14.320;2022-07-15T10:34:53;101096.38;;;21.94;37.61
7168;BME280;3625;51.762;14.320;2022-07-15T10:37:24;101060.06;;;21.85;37.11
7168;BME280;3625;51.762;14.320;2022-07-15T10:39:57;101090.09;;;22.09;37.37
7168;BME280;3625;51.762;14.320;2022-07-15T10:42:59;101079.00;;;21.99;37.16
7168;BME280;3625;51.762;14.320;2022-07-15T10:45:29;101060.31;;;21.96;36.95
7168;BME280;3625;51.762;14.320;2022-07-15T10:48:27;101092.13;;;22.05;37.30
7168;BME280;3625;51.762;14.320;2022-07-15T10:50:56;101051.00;;;22.02;37.38
7168;BME280;3625;51.762;14.320;2022-07-15T10:53:27;101089.31;;;22.51;37.02
7168;BME280;3625;51.762;14.320;2022-07-15T10:56:26;101082.97;;;22.66;36.67
7168;BME280;3625;51.762;14.320;2022-07-15T10:59:09;101023.91;;;22.19;36.82
7168;BME280;3625;51.762;14.320;2022-07-15T11:01:41;101097.56;;;22.92;36.23
7168;BME280;3625;51.762;14.320;2022-07-15T11:04:14;101087.53;;;22.94;36.29
7168;BME280;3625;51.762;14.320;2022-07-15T11:07:33;101093.31;;;22.74;36.40
7168;BME280;3625;51.762;14.320;2022-07-15T11:10:17;101085.63;;;22.82;36.32
7168;BME280;3625;51.762;14.320;2022-07-15T11:13:05;101084.88;;;22.50;35.80
7168;BME280;3625;51.762;14.320;2022-07-15T11:15:34;101085.31;;;21.68;36.96
7168;BME280;3625;51.762;14.320;2022-07-15T11:18:03;101063.78;;;21.37;37.67
7168;BME280;3625;51.762;14.320;2022-07-15T11:20:37;101077.97;;;21.25;37.82
7168;BME280;3625;51.762;14.320;2022-07-15T11:23:08;101084.47;;;21.21;38.04
7168;BME280;3625;51.762;14.320;2022-07-15T11:25:48;100974.19;;;21.03;37.58
7168;BME280;3625;51.762;14.320;2022-07-15T11:28:16;101076.41;;;21.98;37.08
7168;BME280;3625;51.762;14.320;2022-07-15T11:30:49;101076.69;;;21.77;36.90
7168;BME280;3625;51.762;14.320;2022-07-15T11:33:24;101071.22;;;21.63;37.51
7168;BME280;3625;51.762;14.320;2022-07-15T11:35:56;101083.00;;;21.31;37.49
7168;BME280;3625;51.762;14.320;2022-07-15T11:38:28;101076.91;;;21.43;37.83
7168;BME280;3625;51.762;14.320;2022-07-15T11:41:01;101075.88;;;21.61;37.00
7168;BME280;3625;51.762;14.320;2022-07-15T11:44:01;101087.09;;;21.83;36.23
7168;BME280;3625;51.762;14.320;2022-07-15T11:46:48;101063.63;;;21.86;35.68
7168;BME280;3625;51.762;14.320;2022-07-15T11:49:28;101082.47;;;22.01;35.47
7168;BME280;3625;51.762;14.320;2022-07-15T11:51:58;101071.72;;;21.86;35.87
7168;BME280;3625;51.762;14.320;2022-07-15T11:54:28;101069.00;;;22.01;35.35
7168;BME280;3625;51.762;14.320;2022-07-15T11:57:00;100921.56;;;21.29;35.41
7168;BME280;3625;51.762;14.320;2022-07-15T11:59:30;101082.00;;;22.39;34.99
7168;BME280;3625;51.762;14.320;2022-07-15T12:02:03;101079.16;;;22.12;35.26
7168;BME280;3625;51.762;14.320;2022-07-15T12:04:33;101079.66;;;22.18;35.25
7168;BME280;3625;51.762;14.320;2022-07-15T12:07:03;101073.06;;;22.08;34.85
7168;BME280;3625;51.762;14.320;2022-07-15T12:09:39;101075.78;;;21.47;35.89
7168;BME280;3625;51.762;14.320;2022-07-15T12:12:10;100959.16;;;20.19;36.90
7168;BME280;3625;51.762;14.320;2022-07-15T12:14:40;101023.69;;;20.52;37.22
7168;BME280;3625;51.762;14.320;2022-07-15T12:17:09;101068.25;;;20.74;37.07
7168;BME280;3625;51.762;14.320;2022-07-15T12:19:39;101047.69;;;20.88;36.68
7168;BME280;3625;51.762;14.320;2022-07-15T12:22:09;101065.72;;;21.35;36.26
7168;BME280;3625;51.762;14.320;2022-07-15T12:24:42;101077.88;;;22.03;35.09
7168;BME280;3625;51.762;14.320;2022-07-15T12:27:13;101045.72;;;21.84;34.69
7168;BME280;3625;51.762;14.320;2022-07-15T12:29:43;101066.88;;;21.76;34.91
7168;BME280;3625;51.762;14.320;2022-07-15T12:32:32;101044.91;;;21.68;34.97
7168;BME280;3625;51.762;14.320;2022-07-15T12:35:02;101071.63;;;22.03;34.14
7168;BME280;3625;51.762;14.320;2022-07-15T12:37:48;101072.34;;;22.20;34.30
7168;BME280;3625;51.762;14.320;2022-07-15T12:40:23;101004.56;;;22.27;33.17
7168;BME280;3625;51.762;14.320;2022-07-15T12:42:53;101068.81;;;23.05;32.93
7168;BME280;3625;51.762;14.320;2022-07-15T12:45:24;101034.50;;;23.07;32.66
7168;BME280;3625;51.762;14.320;2022-07-15T12:47:59;101070.13;;;23.26;32.61
7168;BME280;3625;51.762;14.320;2022-07-15T12:50:29;101082.53;;;22.88;32.86
7168;BME280;3625;51.762;14.320;2022-07-15T12:52:58;101063.81;;;22.56;32.99
7168;BME280;3625;51.762;14.320;2022-07-15T12:55:30;101039.28;;;22.17;33.66
7168;BME280;3625;51.762;14.320;2022-07-15T12:58:06;101037.56;;;22.74;33.83
7168;BME280;3625;51.762;14.320;2022-07-15T13:00:38;101061.94;;;23.69;33.14
7168;BME280;3625;51.762;14.320;2022-07-15T13:03:09;101052.16;;;24.06;32.00
7168;BME280;3625;51.762;14.320;2022-07-15T13:05:41;101059.56;;;24.17;31.95
7168;BME280;3625;51.762;14.320;2022-07-15T13:08:12;101021.22;;;23.97;31.45
7168;BME280;3625;51.762;14.320;2022-07-15T13:10:44;101055.16;;;24.28;31.64
7168;BME280;3625;51.762;14.320;2022-07-15T13:13:18;101037.97;;;24.29;31.45
7168;BME280;3625;51.762;14.320;2022-07-15T13:15:49;101072.66;;;24.23;31.05
7168;BME280;3625;51.762;14.320;2022-07-15T13:18:20;100998.25;;;23.38;31.70
7168;BME280;3625;51.762;14.320;2022-07-15T13:20:49;101068.59;;;23.63;32.12
7168;BME280;3625;51.762;14.320;2022-07-15T13:23:18;101004.72;;;23.09;32.20
7168;BME280;3625;51.762;14.320;2022-07-15T13:25:47;101074.22;;;23.60;32.09
7168;BME280;3625;51.762;14.320;2022-07-15T13:28:20;101078.84;;;23.44;32.19